sensor_id;sensor_type;location;lat;lon;timestamp;P1;durP1;ratioP1;P2;durP2;ratioP2
20888;SDS011;10604;51.976;7.594;2023-02-28T00:00:30;7.72;;;5.72;;
20888;SDS011;10604;51.976;7.594;2023-02-28T00:02:56;8.48;;;5.40;;
20888;SDS011;10604;51.976;7.594;2023-02-28T00:05:22;7.93;;;5.68;;
20888;SDS011;10604;51.976;7.594;2023-02-28T00:07:49;7.57;;;5.70;;
20888;SDS011;10604;51.976;7.594;2023-02-28T00:10:19;7.20;;;5.63;;
20888;SDS011;10604;51.976;7.594;2023-02-28T00:12:48;8.05;;;5.35;;
20888;SDS011;10604;51.976;7.594;2023-02-28T00:15:14;7.03;;;5.53;;
20888;SDS011;10604;51.976;7.594;2023-02-28T00:17:40;6.97;;;5.13;;
20888;SDS011;10604;51.976;7.594;2023-02-28T00:20:06;8.20;;;5.88;;
20888;SDS011;10604;51.976;7.594;2023-02-28T00:22:33;6.53;;;5.10;;
20888;SDS011;10604;51.976;7.594;2023-02-28T00:24:59;8.17;;;5.70;;
20888;SDS011;10604;51.976;7.594;2023-02-28T00:27:24;8.40;;;5.60;;
20888;SDS011;10604;51.976;7.594;2023-02-28T00:29:49;8.37;;;5.80;;
20888;SDS011;10604;51.976;7.594;2023-02-28T00:32:15;9.17;;;5.40;;
20888;SDS011;10604;51.976;7.594;2023-02-28T00:34:40;7.57;;;5.60;;
20888;SDS011;10604;51.976;7.594;2023-02-28T00:37:06;6.90;;;5.13;;
20888;SDS011;10604;51.976;7.594;2023-02-28T00:39:35;7.90;;;5.40;;
20888;SDS011;10604;51.976;7.594;2023-02-28T00:42:02;5.73;;;5.07;;
20888;SDS011;10604;51.976;7.594;2023-02-28T00:44:28;7.00;;;5.10;;
20888;SDS011;10604;51.976;7.594;2023-02-28T00:46:54;5.70;;;5.10;;
20888;SDS011;10604;51.976;7.594;2023-02-28T00:49:20;7.80;;;5.40;;
20888;SDS011;10604;51.976;7.594;2023-02-28T00:51:46;7.70;;;5.40;;
20888;SDS011;10604;51.976;7.594;2023-02-28T00:54:12;7.03;;;5.40;;
20888;SDS011;10604;51.976;7.594;2023-02-28T00:56:37;7.17;;;5.50;;
20888;SDS011;10604;51.976;7.594;2023-02-28T00:59:03;6.40;;;5.50;;
20888;SDS011;10604;51.976;7.594;2023-02-28T01:01:28;7.65;;;5.45;;
20888;SDS011;10604;51.976;7.594;2023-02-28T01:03:53;8.37;;;5.50;;
20888;SDS011;10604;51.976;7.594;2023-02-28T01:06:19;7.37;;;5.40;;
20888;SDS011;10604;51.976;7.594;2023-02-28T01:08:44;7.53;;;5.53;;
20888;SDS011;10604;51.976;7.594;2023-02-28T01:11:10;7.20;;;5.53;;
20888;SDS011;10604;51.976;7.594;2023-02-28T01:13:37;6.72;;;5.72;;
20888;SDS011;10604;51.976;7.594;2023-02-28T01:16:02;7.65;;;5.35;;
20888;SDS011;10604;51.976;7.594;2023-02-28T01:18:28;7.70;;;5.10;;
20888;SDS011;10604;51.976;7.594;2023-02-28T01:20:53;6.90;;;5.10;;
20888;SDS011;10604;51.976;7.594;2023-02-28T01:23:20;8.25;;;5.55;;
20888;SDS011;10604;51.976;7.594;2023-02-28T01:25:48;6.00;;;5.30;;
20888;SDS011;10604;51.976;7.594;2023-02-28T01:28:14;7.50;;;5.63;;
20888;SDS011;10604;51.976;7.594;2023-02-28T01:30:40;6.70;;;5.50;;
20888;SDS011;10604;51.976;7.594;2023-02-28T01:33:05;8.33;;;5.57;;
20888;SDS011;10604;51.976;7.594;2023-02-28T01:35:34;7.83;;;5.90;;
20888;SDS011;10604;51.976;7.594;2023-02-28T01:38:01;7.30;;;5.30;;
20888;SDS011;10604;51.976;7.594;2023-02-28T01:40:27;8.23;;;5.72;;
20888;SDS011;10604;51.976;7.594;2023-02-28T01:42:52;6.37;;;5.27;;
20888;SDS011;10604;51.976;7.594;2023-02-28T01:47:50;8.02;;;6.00;;
20888;SDS011;10604;51.976;7.594;2023-02-28T01:50:20;9.15;;;6.00;;
20888;SDS011;10604;51.976;7.594;2023-02-28T01:52:48;7.53;;;6.05;;
20888;SDS011;10604;51.976;7.594;2023-02-28T01:55:16;7.50;;;6.50;;
20888;SDS011;10604;51.976;7.594;2023-02-28T01:57:46;8.00;;;6.50;;
20888;SDS011;10604;51.976;7.594;2023-02-28T02:00:17;7.38;;;6.50;;
20888;SDS011;10604;51.976;7.594;2023-02-28T02:02:47;6.65;;;5.95;;
20888;SDS011;10604;51.976;7.594;2023-02-28T02:05:17;8.13;;;6.18;;
20888;SDS011;10604;51.976;7.594;2023-02-28T02:07:45;8.38;;;5.88;;
20888;SDS011;10604;51.976;7.594;2023-02-28T02:10:14;8.98;;;6.10;;
20888;SDS011;10604;51.976;7.594;2023-02-28T02:17:49;6.17;;;5.00;;
20888;SDS011;10604;51.976;7.594;2023-02-28T02:29:23;7.72;;;5.13;;
20888;SDS011;10604;51.976;7.594;2023-02-28T02:37:35;6.45;;;5.18;;
20888;SDS011;10604;51.976;7.594;2023-02-28T02:40:20;7.68;;;5.63;;
20888;SDS011;10604;51.976;7.594;2023-02-28T02:43:11;7.22;;;5.93;;
20888;SDS011;10604;51.976;7.594;2023-02-28T02:48:18;6.30;;;5.47;;
20888;SDS011;10604;51.976;7.594;2023-02-28T02:50:49;8.73;;;5.65;;
20888;SDS011;10604;51.976;7.594;2023-02-28T02:53:18;6.65;;;5.22;;
20888;SDS011;10604;51.976;7.594;2023-02-28T02:55:48;7.35;;;5.53;;
20888;SDS011;10604;51.976;7.594;2023-02-28T02:58:20;7.40;;;5.57;;
20888;SDS011;10604;51.976;7.594;2023-02-28T03:00:53;7.43;;;5.43;;
20888;SDS011;10604;51.976;7.594;2023-02-28T03:03:22;8.95;;;5.85;;
20888;SDS011;10604;51.976;7.594;2023-02-28T03:05:54;8.57;;;5.80;;
20888;SDS011;10604;51.976;7.594;2023-02-28T03:08:21;7.25;;;5.25;;
20888;SDS011;10604;51.976;7.594;2023-02-28T03:10:50;6.32;;;5.20;;
20888;SDS011;10604;51.976;7.594;2023-02-28T03:19:03;7.03;;;5.78;;
20888;SDS011;10604;51.976;7.594;2023-02-28T03:24:32;7.83;;;5.93;;
20888;SDS011;10604;51.976;7.594;2023-02-28T03:30:00;7.50;;;5.90;;
20888;SDS011;10604;51.976;7.594;2023-02-28T03:32:35;7.15;;;5.63;;
20888;SDS011;10604;51.976;7.594;2023-02-28T03:35:09;8.63;;;5.85;;
20888;SDS011;10604;51.976;7.594;2023-02-28T03:37:46;7.70;;;5.70;;
20888;SDS011;10604;51.976;7.594;2023-02-28T03:40:16;7.13;;;5.70;;
20888;SDS011;10604;51.976;7.594;2023-02-28T03:42:49;6.70;;;5.47;;
20888;SDS011;10604;51.976;7.594;2023-02-28T03:45:21;6.88;;;5.70;;
20888;SDS011;10604;51.976;7.594;2023-02-28T03:48:05;6.47;;;5.45;;
20888;SDS011;10604;51.976;7.594;2023-02-28T03:50:37;6.43;;;5.40;;
20888;SDS011;10604;51.976;7.594;2023-02-28T03:53:16;8.35;;;5.80;;
20888;SDS011;10604;51.976;7.594;2023-02-28T03:55:51;9.38;;;6.20;;
20888;SDS011;10604;51.976;7.594;2023-02-28T04:01:58;7.38;;;5.40;;
20888;SDS011;10604;51.976;7.594;2023-02-28T04:04:07;8.13;;;5.82;;
20888;SDS011;10604;51.976;7.594;2023-02-28T04:06:37;9.30;;;5.95;;
20888;SDS011;10604;51.976;7.594;2023-02-28T04:09:03;6.63;;;5.33;;
20888;SDS011;10604;51.976;7.594;2023-02-28T04:11:34;6.67;;;5.57;;
20888;SDS011;10604;51.976;7.594;2023-02-28T04:14:05;7.75;;;5.30;;
20888;SDS011;10604;51.976;7.594;2023-02-28T04:16:32;7.85;;;5.72;;
20888;SDS011;10604;51.976;7.594;2023-02-28T04:18:59;6.80;;;5.53;;
20888;SDS011;10604;51.976;7.594;2023-02-28T04:21:29;6.57;;;5.70;;
20888;SDS011;10604;51.976;7.594;2023-02-28T04:23:55;7.53;;;5.40;;
20888;SDS011;10604;51.976;7.594;2023-02-28T04:26:27;9.50;;;6.22;;
20888;SDS011;10604;51.976;7.594;2023-02-28T04:28:54;6.50;;;5.55;;
20888;SDS011;10604;51.976;7.594;2023-02-28T04:31:20;8.10;;;6.03;;
20888;SDS011;10604;51.976;7.594;2023-02-28T04:33:45;16.27;;;10.93;;
20888;SDS011;10604;51.976;7.594;2023-02-28T04:36:11;22.35;;;14.27;;
20888;SDS011;10604;51.976;7.594;2023-02-28T04:38:36;13.17;;;9.53;;
20888;SDS011;10604;51.976;7.594;2023-02-28T04:41:03;13.38;;;9.77;;
20888;SDS011;10604;51.976;7.594;2023-02-28T04:43:30;10.02;;;8.35;;
20888;SDS011;10604;51.976;7.594;2023-02-28T04:45:56;10.55;;;7.90;;
20888;SDS011;10604;51.976;7.594;2023-02-28T04:48:27;10.52;;;6.95;;
20888;SDS011;10604;51.976;7.594;2023-02-28T04:50:54;8.73;;;7.10;;
20888;SDS011;10604;51.976;7.594;2023-02-28T04:53:19;8.77;;;6.70;;
20888;SDS011;10604;51.976;7.594;2023-02-28T04:55:45;9.43;;;7.10;;
20888;SDS011;10604;51.976;7.594;2023-02-28T04:58:11;8.63;;;7.32;;
20888;SDS011;10604;51.976;7.594;2023-02-28T05:00:37;9.10;;;8.20;;
20888;SDS011;10604;51.976;7.594;2023-02-28T05:03:02;7.67;;;6.40;;
20888;SDS011;10604;51.976;7.594;2023-02-28T05:05:28;9.30;;;6.50;;
20888;SDS011;10604;51.976;7.594;2023-02-28T05:07:53;8.38;;;6.47;;
20888;SDS011;10604;51.976;7.594;2023-02-28T05:10:20;6.50;;;5.80;;
20888;SDS011;10604;51.976;7.594;2023-02-28T05:12:46;8.32;;;6.00;;
20888;SDS011;10604;51.976;7.594;2023-02-28T05:15:13;9.80;;;6.03;;
20888;SDS011;10604;51.976;7.594;2023-02-28T05:17:39;8.13;;;6.13;;
20888;SDS011;10604;51.976;7.594;2023-02-28T05:20:05;8.33;;;6.23;;
20888;SDS011;10604;51.976;7.594;2023-02-28T05:22:32;7.32;;;6.00;;
20888;SDS011;10604;51.976;7.594;2023-02-28T05:24:57;9.97;;;6.30;;
20888;SDS011;10604;51.976;7.594;2023-02-28T05:27:23;8.43;;;6.03;;
20888;SDS011;10604;51.976;7.594;2023-02-28T05:29:48;7.80;;;5.83;;
20888;SDS011;10604;51.976;7.594;2023-02-28T05:32:13;8.45;;;6.80;;
20888;SDS011;10604;51.976;7.594;2023-02-28T05:34:39;11.37;;;8.37;;
20888;SDS011;10604;51.976;7.594;2023-02-28T05:37:05;11.57;;;8.80;;
20888;SDS011;10604;51.976;7.594;2023-02-28T05:39:31;13.82;;;10.10;;
20888;SDS011;10604;51.976;7.594;2023-02-28T05:41:57;11.30;;;9.00;;
20888;SDS011;10604;51.976;7.594;2023-02-28T05:44:22;11.27;;;8.10;;
20888;SDS011;10604;51.976;7.594;2023-02-28T05:46:48;9.60;;;6.97;;
20888;SDS011;10604;51.976;7.594;2023-02-28T05:49:13;9.07;;;6.50;;
20888;SDS011;10604;51.976;7.594;2023-02-28T05:51:39;9.03;;;6.10;;
20888;SDS011;10604;51.976;7.594;2023-02-28T05:54:05;8.48;;;6.07;;
20888;SDS011;10604;51.976;7.594;2023-02-28T05:56:31;8.68;;;5.97;;
20888;SDS011;10604;51.976;7.594;2023-02-28T05:58:59;7.18;;;5.90;;
20888;SDS011;10604;51.976;7.594;2023-02-28T06:01:31;8.93;;;6.27;;
20888;SDS011;10604;51.976;7.594;2023-02-28T06:04:01;8.68;;;6.05;;
20888;SDS011;10604;51.976;7.594;2023-02-28T06:06:27;7.30;;;5.87;;
20888;SDS011;10604;51.976;7.594;2023-02-28T06:08:52;9.75;;;6.10;;
20888;SDS011;10604;51.976;7.594;2023-02-28T06:11:18;8.37;;;5.40;;
20888;SDS011;10604;51.976;7.594;2023-02-28T06:13:45;7.85;;;5.80;;
20888;SDS011;10604;51.976;7.594;2023-02-28T06:16:11;6.80;;;5.70;;
20888;SDS011;10604;51.976;7.594;2023-02-28T06:18:37;8.15;;;6.07;;
20888;SDS011;10604;51.976;7.594;2023-02-28T06:21:02;8.20;;;6.23;;
20888;SDS011;10604;51.976;7.594;2023-02-28T06:23:27;9.15;;;7.22;;
20888;SDS011;10604;51.976;7.594;2023-02-28T06:25:53;8.23;;;6.80;;
20888;SDS011;10604;51.976;7.594;2023-02-28T06:28:21;9.82;;;8.07;;
20888;SDS011;10604;51.976;7.594;2023-02-28T06:30:46;9.15;;;8.25;;
20888;SDS011;10604;51.976;7.594;2023-02-28T06:33:11;10.90;;;9.80;;
20888;SDS011;10604;51.976;7.594;2023-02-28T06:35:37;11.13;;;9.70;;
20888;SDS011;10604;51.976;7.594;2023-02-28T06:38:03;11.38;;;8.63;;
20888;SDS011;10604;51.976;7.594;2023-02-28T06:40:28;10.03;;;8.43;;
20888;SDS011;10604;51.976;7.594;2023-02-28T06:42:56;9.68;;;8.38;;
20888;SDS011;10604;51.976;7.594;2023-02-28T06:45:22;9.80;;;6.90;;
20888;SDS011;10604;51.976;7.594;2023-02-28T06:47:47;7.97;;;6.73;;
20888;SDS011;10604;51.976;7.594;2023-02-28T06:50:17;7.50;;;6.40;;
20888;SDS011;10604;51.976;7.594;2023-02-28T06:52:44;8.65;;;6.00;;
20888;SDS011;10604;51.976;7.594;2023-02-28T06:55:10;6.23;;;5.63;;
20888;SDS011;10604;51.976;7.594;2023-02-28T06:57:35;7.50;;;5.20;;
20888;SDS011;10604;51.976;7.594;2023-02-28T07:00:03;6.63;;;5.40;;
20888;SDS011;10604;51.976;7.594;2023-02-28T07:02:32;6.30;;;5.35;;
20888;SDS011;10604;51.976;7.594;2023-02-28T07:04:58;7.03;;;5.73;;
20888;SDS011;10604;51.976;7.594;2023-02-28T07:07:23;6.00;;;5.07;;
20888;SDS011;10604;51.976;7.594;2023-02-28T07:09:48;7.27;;;5.57;;
20888;SDS011;10604;51.976;7.594;2023-02-28T07:12:14;7.03;;;5.77;;
20888;SDS011;10604;51.976;7.594;2023-02-28T07:14:40;8.27;;;5.90;;
20888;SDS011;10604;51.976;7.594;2023-02-28T07:17:09;7.00;;;5.95;;
20888;SDS011;10604;51.976;7.594;2023-02-28T07:19:37;7.63;;;5.47;;
20888;SDS011;10604;51.976;7.594;2023-02-28T07:22:03;9.43;;;6.03;;
20888;SDS011;10604;51.976;7.594;2023-02-28T07:24:28;6.97;;;5.20;;
20888;SDS011;10604;51.976;7.594;2023-02-28T07:26:54;7.75;;;5.15;;
20888;SDS011;10604;51.976;7.594;2023-02-28T07:29:20;6.17;;;5.40;;
20888;SDS011;10604;51.976;7.594;2023-02-28T07:31:45;6.97;;;5.43;;
20888;SDS011;10604;51.976;7.594;2023-02-28T07:34:11;8.15;;;5.68;;
20888;SDS011;10604;51.976;7.594;2023-02-28T07:36:37;8.00;;;5.43;;
20888;SDS011;10604;51.976;7.594;2023-02-28T07:39:02;6.67;;;5.40;;
20888;SDS011;10604;51.976;7.594;2023-02-28T07:41:29;5.72;;;5.13;;
20888;SDS011;10604;51.976;7.594;2023-02-28T07:43:59;8.02;;;5.72;;
20888;SDS011;10604;51.976;7.594;2023-02-28T07:46:28;5.53;;;4.78;;
20888;SDS011;10604;51.976;7.594;2023-02-28T07:49:00;6.23;;;4.90;;
20888;SDS011;10604;51.976;7.594;2023-02-28T07:51:30;6.80;;;5.20;;
20888;SDS011;10604;51.976;7.594;2023-02-28T07:53:56;6.43;;;5.18;;
20888;SDS011;10604;51.976;7.594;2023-02-28T07:56:26;7.22;;;5.03;;
20888;SDS011;10604;51.976;7.594;2023-02-28T07:58:52;6.80;;;5.00;;
20888;SDS011;10604;51.976;7.594;2023-02-28T08:01:20;7.00;;;5.20;;
20888;SDS011;10604;51.976;7.594;2023-02-28T08:03:47;9.02;;;4.43;;
20888;SDS011;10604;51.976;7.594;2023-02-28T08:06:18;6.68;;;4.97;;
20888;SDS011;10604;51.976;7.594;2023-02-28T08:08:46;5.45;;;4.50;;
20888;SDS011;10604;51.976;7.594;2023-02-28T08:11:15;5.22;;;4.05;;
20888;SDS011;10604;51.976;7.594;2023-02-28T08:13:45;5.43;;;4.10;;
20888;SDS011;10604;51.976;7.594;2023-02-28T08:16:13;6.50;;;4.10;;
20888;SDS011;10604;51.976;7.594;2023-02-28T08:18:47;6.20;;;4.07;;
20888;SDS011;10604;51.976;7.594;2023-02-28T08:21:20;5.93;;;4.00;;
20888;SDS011;10604;51.976;7.594;2023-02-28T08:23:49;5.13;;;4.10;;
20888;SDS011;10604;51.976;7.594;2023-02-28T08:26:19;4.68;;;3.95;;
20888;SDS011;10604;51.976;7.594;2023-02-28T08:28:46;6.50;;;4.60;;
20888;SDS011;10604;51.976;7.594;2023-02-28T08:31:13;8.52;;;6.28;;
20888;SDS011;10604;51.976;7.594;2023-02-28T08:33:40;7.28;;;5.00;;
20888;SDS011;10604;51.976;7.594;2023-02-28T08:36:08;7.15;;;4.70;;
20888;SDS011;10604;51.976;7.594;2023-02-28T08:38:35;6.18;;;4.32;;
20888;SDS011;10604;51.976;7.594;2023-02-28T08:41:03;6.97;;;4.80;;
20888;SDS011;10604;51.976;7.594;2023-02-28T08:43:33;3.88;;;2.90;;
20888;SDS011;10604;51.976;7.594;2023-02-28T08:45:59;4.40;;;2.67;;
20888;SDS011;10604;51.976;7.594;2023-02-28T08:48:26;3.33;;;2.83;;
20888;SDS011;10604;51.976;7.594;2023-02-28T08:50:55;3.17;;;2.88;;
20888;SDS011;10604;51.976;7.594;2023-02-28T08:53:25;3.03;;;2.38;;
20888;SDS011;10604;51.976;7.594;2023-02-28T08:55:58;3.25;;;2.45;;
20888;SDS011;10604;51.976;7.594;2023-02-28T08:58:25;4.20;;;2.67;;
20888;SDS011;10604;51.976;7.594;2023-02-28T09:00:53;3.33;;;2.55;;
20888;SDS011;10604;51.976;7.594;2023-02-28T09:03:19;3.97;;;2.70;;
20888;SDS011;10604;51.976;7.594;2023-02-28T09:08:42;4.20;;;2.47;;
20888;SDS011;10604;51.976;7.594;2023-02-28T09:11:08;4.80;;;2.50;;
20888;SDS011;10604;51.976;7.594;2023-02-28T09:13:35;3.22;;;2.25;;
20888;SDS011;10604;51.976;7.594;2023-02-28T09:16:03;3.35;;;2.17;;
20888;SDS011;10604;51.976;7.594;2023-02-28T09:18:30;3.72;;;2.20;;
20888;SDS011;10604;51.976;7.594;2023-02-28T09:20:56;3.22;;;2.10;;
20888;SDS011;10604;51.976;7.594;2023-02-28T09:23:22;2.45;;;2.00;;
20888;SDS011;10604;51.976;7.594;2023-02-28T09:25:51;2.83;;;2.20;;
20888;SDS011;10604;51.976;7.594;2023-02-28T09:28:19;2.58;;;1.90;;
20888;SDS011;10604;51.976;7.594;2023-02-28T09:30:45;2.25;;;1.70;;
20888;SDS011;10604;51.976;7.594;2023-02-28T09:33:16;2.42;;;1.92;;
20888;SDS011;10604;51.976;7.594;2023-02-28T09:35:42;2.00;;;1.70;;
20888;SDS011;10604;51.976;7.594;2023-02-28T09:38:08;1.73;;;1.60;;
20888;SDS011;10604;51.976;7.594;2023-02-28T09:40:39;2.23;;;1.77;;
20888;SDS011;10604;51.976;7.594;2023-02-28T09:43:30;2.27;;;1.80;;
20888;SDS011;10604;51.976;7.594;2023-02-28T09:46:25;2.83;;;2.00;;
20888;SDS011;10604;51.976;7.594;2023-02-28T09:48:46;1.83;;;1.40;;
20888;SDS011;10604;51.976;7.594;2023-02-28T09:51:27;3.13;;;1.60;;
20888;SDS011;10604;51.976;7.594;2023-02-28T09:53:54;2.45;;;1.60;;
20888;SDS011;10604;51.976;7.594;2023-02-28T09:56:21;2.40;;;1.67;;
20888;SDS011;10604;51.976;7.594;2023-02-28T09:59:01;1.70;;;1.30;;
20888;SDS011;10604;51.976;7.594;2023-02-28T10:09:52;1.52;;;1.40;;
20888;SDS011;10604;51.976;7.594;2023-02-28T10:12:22;1.50;;;1.40;;
20888;SDS011;10604;51.976;7.594;2023-02-28T10:14:49;1.70;;;1.45;;
20888;SDS011;10604;51.976;7.594;2023-02-28T10:17:19;2.05;;;1.60;;
20888;SDS011;10604;51.976;7.594;2023-02-28T10:23:20;3.00;;;1.60;;
20888;SDS011;10604;51.976;7.594;2023-02-28T10:25:54;1.50;;;1.40;;
20888;SDS011;10604;51.976;7.594;2023-02-28T10:28:23;2.63;;;1.50;;
20888;SDS011;10604;51.976;7.594;2023-02-28T10:30:51;1.80;;;1.20;;
20888;SDS011;10604;51.976;7.594;2023-02-28T10:35:49;1.97;;;1.40;;
20888;SDS011;10604;51.976;7.594;2023-02-28T10:38:17;2.28;;;1.40;;
20888;SDS011;10604;51.976;7.594;2023-02-28T10:40:44;2.35;;;1.55;;
20888;SDS011;10604;51.976;7.594;2023-02-28T10:45:38;2.22;;;1.60;;
20888;SDS011;10604;51.976;7.594;2023-02-28T10:48:05;2.10;;;1.70;;
20888;SDS011;10604;51.976;7.594;2023-02-28T10:50:51;1.75;;;1.58;;
20888;SDS011;10604;51.976;7.594;2023-02-28T10:55:58;1.77;;;1.60;;
20888;SDS011;10604;51.976;7.594;2023-02-28T10:58:30;4.05;;;1.88;;
20888;SDS011;10604;51.976;7.594;2023-02-28T11:00:55;2.17;;;1.60;;
20888;SDS011;10604;51.976;7.594;2023-02-28T11:03:31;2.38;;;1.70;;
20888;SDS011;10604;51.976;7.594;2023-02-28T11:06:03;1.97;;;1.60;;
20888;SDS011;10604;51.976;7.594;2023-02-28T11:08:33;2.33;;;1.67;;
20888;SDS011;10604;51.976;7.594;2023-02-28T11:11:01;4.07;;;1.80;;
20888;SDS011;10604;51.976;7.594;2023-02-28T11:13:33;1.85;;;1.60;;
20888;SDS011;10604;51.976;7.594;2023-02-28T11:16:03;2.75;;;1.60;;
20888;SDS011;10604;51.976;7.594;2023-02-28T11:18:32;2.50;;;1.60;;
20888;SDS011;10604;51.976;7.594;2023-02-28T11:21:18;2.63;;;1.73;;
20888;SDS011;10604;51.976;7.594;2023-02-28T11:23:58;2.75;;;1.70;;
20888;SDS011;10604;51.976;7.594;2023-02-28T11:26:40;2.00;;;1.50;;
20888;SDS011;10604;51.976;7.594;2023-02-28T11:29:14;2.95;;;1.73;;
20888;SDS011;10604;51.976;7.594;2023-02-28T11:31:48;2.38;;;1.90;;
20888;SDS011;10604;51.976;7.594;2023-02-28T11:34:41;2.80;;;1.40;;
20888;SDS011;10604;51.976;7.594;2023-02-28T11:37:15;2.30;;;1.40;;
20888;SDS011;10604;51.976;7.594;2023-02-28T11:39:43;2.53;;;1.30;;
20888;SDS011;10604;51.976;7.594;2023-02-28T11:44:46;2.33;;;1.30;;
20888;SDS011;10604;51.976;7.594;2023-02-28T11:52:47;2.10;;;1.50;;
20888;SDS011;10604;51.976;7.594;2023-02-28T11:55:20;1.77;;;1.63;;
20888;SDS011;10604;51.976;7.594;2023-02-28T12:06:09;2.80;;;1.80;;
20888;SDS011;10604;51.976;7.594;2023-02-28T12:19:08;3.30;;;2.07;;
20888;SDS011;10604;51.976;7.594;2023-02-28T12:21:41;3.20;;;2.30;;
20888;SDS011;10604;51.976;7.594;2023-02-28T12:27:25;3.30;;;1.92;;
20888;SDS011;10604;51.976;7.594;2023-02-28T12:32:41;2.55;;;2.10;;
20888;SDS011;10604;51.976;7.594;2023-02-28T12:40:02;3.70;;;2.30;;
20888;SDS011;10604;51.976;7.594;2023-02-28T12:43:32;3.53;;;2.10;;
20888;SDS011;10604;51.976;7.594;2023-02-28T12:48:18;3.60;;;2.50;;
20888;SDS011;10604;51.976;7.594;2023-02-28T12:50:49;2.80;;;2.47;;
20888;SDS011;10604;51.976;7.594;2023-02-28T12:56:02;3.13;;;2.50;;
20888;SDS011;10604;51.976;7.594;2023-02-28T12:58:38;3.70;;;2.50;;
20888;SDS011;10604;51.976;7.594;2023-02-28T13:04:08;3.80;;;2.53;;
20888;SDS011;10604;51.976;7.594;2023-02-28T13:09:51;3.27;;;2.80;;
20888;SDS011;10604;51.976;7.594;2023-02-28T13:12:19;2.97;;;2.17;;
20888;SDS011;10604;51.976;7.594;2023-02-28T13:14:45;3.40;;;2.13;;
20888;SDS011;10604;51.976;7.594;2023-02-28T13:17:12;2.92;;;2.53;;
20888;SDS011;10604;51.976;7.594;2023-02-28T13:22:20;3.13;;;2.17;;
20888;SDS011;10604;51.976;7.594;2023-02-28T13:24:49;2.78;;;1.95;;
20888;SDS011;10604;51.976;7.594;2023-02-28T13:27:35;3.10;;;2.03;;
20888;SDS011;10604;51.976;7.594;2023-02-28T13:36:30;2.38;;;1.73;;
20888;SDS011;10604;51.976;7.594;2023-02-28T13:39:00;2.78;;;1.88;;
20888;SDS011;10604;51.976;7.594;2023-02-28T14:05:44;3.42;;;1.73;;
20888;SDS011;10604;51.976;7.594;2023-02-28T14:08:12;2.73;;;1.80;;
20888;SDS011;10604;51.976;7.594;2023-02-28T14:10:52;2.45;;;2.00;;
20888;SDS011;10604;51.976;7.594;2023-02-28T14:13:37;2.80;;;1.90;;
20888;SDS011;10604;51.976;7.594;2023-02-28T14:16:09;3.28;;;2.10;;
20888;SDS011;10604;51.976;7.594;2023-02-28T14:18:58;2.70;;;1.70;;
20888;SDS011;10604;51.976;7.594;2023-02-28T14:21:33;4.63;;;3.08;;
20888;SDS011;10604;51.976;7.594;2023-02-28T14:32:45;2.70;;;1.73;;
20888;SDS011;10604;51.976;7.594;2023-02-28T14:38:00;2.28;;;1.90;;
20888;SDS011;10604;51.976;7.594;2023-02-28T14:40:34;2.25;;;1.77;;
20888;SDS011;10604;51.976;7.594;2023-02-28T14:43:03;2.53;;;1.93;;
20888;SDS011;10604;51.976;7.594;2023-02-28T14:45:31;2.55;;;1.98;;
20888;SDS011;10604;51.976;7.594;2023-02-28T14:47:58;3.03;;;2.17;;
20888;SDS011;10604;51.976;7.594;2023-02-28T14:50:48;3.42;;;2.45;;
20888;SDS011;10604;51.976;7.594;2023-02-28T14:53:17;2.80;;;1.83;;
20888;SDS011;10604;51.976;7.594;2023-02-28T14:55:45;3.00;;;1.90;;
20888;SDS011;10604;51.976;7.594;2023-02-28T14:58:19;3.30;;;2.10;;
20888;SDS011;10604;51.976;7.594;2023-02-28T15:00:47;3.10;;;1.83;;
20888;SDS011;10604;51.976;7.594;2023-02-28T15:03:18;3.10;;;1.90;;
20888;SDS011;10604;51.976;7.594;2023-02-28T15:05:50;2.87;;;2.17;;
20888;SDS011;10604;51.976;7.594;2023-02-28T15:08:24;2.75;;;2.30;;
20888;SDS011;10604;51.976;7.594;2023-02-28T15:10:55;4.80;;;2.22;;
20888;SDS011;10604;51.976;7.594;2023-02-28T15:13:25;2.67;;;2.15;;
20888;SDS011;10604;51.976;7.594;2023-02-28T15:16:00;3.38;;;2.30;;
20888;SDS011;10604;51.976;7.594;2023-02-28T15:18:41;3.42;;;2.40;;
20888;SDS011;10604;51.976;7.594;2023-02-28T15:21:12;4.18;;;2.17;;
20888;SDS011;10604;51.976;7.594;2023-02-28T15:23:40;3.97;;;2.20;;
20888;SDS011;10604;51.976;7.594;2023-02-28T15:26:16;3.47;;;1.98;;
20888;SDS011;10604;51.976;7.594;2023-02-28T15:28:45;3.10;;;2.30;;
20888;SDS011;10604;51.976;7.594;2023-02-28T15:31:46;3.28;;;2.20;;
20888;SDS011;10604;51.976;7.594;2023-02-28T15:34:19;5.30;;;3.43;;
20888;SDS011;10604;51.976;7.594;2023-02-28T15:36:46;2.70;;;2.10;;
20888;SDS011;10604;51.976;7.594;2023-02-28T15:39:27;3.13;;;1.88;;
20888;SDS011;10604;51.976;7.594;2023-02-28T15:42:10;3.88;;;2.10;;
20888;SDS011;10604;51.976;7.594;2023-02-28T15:44:36;3.25;;;2.10;;
20888;SDS011;10604;51.976;7.594;2023-02-28T15:47:02;3.37;;;2.23;;
20888;SDS011;10604;51.976;7.594;2023-02-28T15:49:34;5.32;;;2.38;;
20888;SDS011;10604;51.976;7.594;2023-02-28T15:52:05;4.28;;;2.28;;
20888;SDS011;10604;51.976;7.594;2023-02-28T15:54:34;2.80;;;2.00;;
20888;SDS011;10604;51.976;7.594;2023-02-28T15:57:04;2.65;;;2.08;;
20888;SDS011;10604;51.976;7.594;2023-02-28T15:59:34;3.17;;;2.30;;
20888;SDS011;10604;51.976;7.594;2023-02-28T16:02:16;2.83;;;2.13;;
20888;SDS011;10604;51.976;7.594;2023-02-28T16:07:31;3.38;;;2.40;;
20888;SDS011;10604;51.976;7.594;2023-02-28T16:09:58;3.42;;;2.25;;
20888;SDS011;10604;51.976;7.594;2023-02-28T16:12:31;4.10;;;2.70;;
20888;SDS011;10604;51.976;7.594;2023-02-28T16:15:00;3.13;;;2.40;;
20888;SDS011;10604;51.976;7.594;2023-02-28T16:17:31;2.97;;;2.10;;
20888;SDS011;10604;51.976;7.594;2023-02-28T16:19:58;3.70;;;2.60;;
20888;SDS011;10604;51.976;7.594;2023-02-28T16:22:24;2.90;;;2.47;;
20888;SDS011;10604;51.976;7.594;2023-02-28T16:24:49;3.42;;;2.30;;
20888;SDS011;10604;51.976;7.594;2023-02-28T16:27:20;4.10;;;2.60;;
20888;SDS011;10604;51.976;7.594;2023-02-28T16:29:52;3.27;;;2.30;;
20888;SDS011;10604;51.976;7.594;2023-02-28T16:32:18;5.32;;;2.50;;
20888;SDS011;10604;51.976;7.594;2023-02-28T16:34:44;4.13;;;2.30;;
20888;SDS011;10604;51.976;7.594;2023-02-28T16:37:11;4.57;;;3.70;;
20888;SDS011;10604;51.976;7.594;2023-02-28T16:39:41;4.30;;;3.00;;
20888;SDS011;10604;51.976;7.594;2023-02-28T16:42:13;4.18;;;2.38;;
20888;SDS011;10604;51.976;7.594;2023-02-28T16:44:44;3.37;;;2.50;;
20888;SDS011;10604;51.976;7.594;2023-02-28T16:47:10;2.88;;;2.40;;
20888;SDS011;10604;51.976;7.594;2023-02-28T16:49:36;3.38;;;2.50;;
20888;SDS011;10604;51.976;7.594;2023-02-28T16:52:01;5.57;;;2.70;;
20888;SDS011;10604;51.976;7.594;2023-02-28T16:54:27;3.60;;;2.83;;
20888;SDS011;10604;51.976;7.594;2023-02-28T16:56:53;3.30;;;2.58;;
20888;SDS011;10604;51.976;7.594;2023-02-28T16:59:19;5.13;;;2.43;;
20888;SDS011;10604;51.976;7.594;2023-02-28T17:01:48;3.85;;;2.83;;
20888;SDS011;10604;51.976;7.594;2023-02-28T17:04:14;4.15;;;2.72;;
20888;SDS011;10604;51.976;7.594;2023-02-28T17:06:40;5.00;;;3.00;;
20888;SDS011;10604;51.976;7.594;2023-02-28T17:09:08;5.53;;;3.03;;
20888;SDS011;10604;51.976;7.594;2023-02-28T17:11:40;4.10;;;2.67;;
20888;SDS011;10604;51.976;7.594;2023-02-28T17:14:06;4.77;;;2.50;;
20888;SDS011;10604;51.976;7.594;2023-02-28T17:16:35;5.07;;;2.87;;
20888;SDS011;10604;51.976;7.594;2023-02-28T17:19:05;6.45;;;3.38;;
20888;SDS011;10604;51.976;7.594;2023-02-28T17:21:31;4.63;;;3.15;;
20888;SDS011;10604;51.976;7.594;2023-02-28T17:23:58;4.20;;;3.47;;
20888;SDS011;10604;51.976;7.594;2023-02-28T17:26:24;4.03;;;3.50;;
20888;SDS011;10604;51.976;7.594;2023-02-28T17:28:50;7.22;;;5.70;;
20888;SDS011;10604;51.976;7.594;2023-02-28T17:31:17;15.70;;;11.15;;
20888;SDS011;10604;51.976;7.594;2023-02-28T17:33:43;19.87;;;15.87;;
20888;SDS011;10604;51.976;7.594;2023-02-28T17:36:13;15.90;;;12.20;;